sensor_id;sensor_type;location;lat;lon;timestamp;pressure;altitude;pressure_sealevel;temperature;humidity
14383;BME280;7275;50.328;8.720;2023-03-16T00:02:02;100285.69;;;6.98;37.60
14383;BME280;7275;50.328;8.720;2023-03-16T00:04:30;100283.13;;;6.92;37.55
14383;BME280;7275;50.328;8.720;2023-03-16T00:07:02;100285.81;;;6.86;37.55
14383;BME280;7275;50.328;8.720;2023-03-16T00:09:30;100286.75;;;6.82;37.57
14383;BME280;7275;50.328;8.720;2023-03-16T00:12:00;100282.44;;;6.78;37.58
14383;BME280;7275;50.328;8.720;2023-03-16T00:14:29;100286.84;;;6.75;37.46
14383;BME280;7275;50.328;8.720;2023-03-16T00:16:57;100295.63;;;6.72;37.63
14383;BME280;7275;50.328;8.720;2023-03-16T00:19:24;100288.69;;;6.68;37.96
14383;BME280;7275;50.328;8.720;2023-03-16T00:21:52;100292.22;;;6.67;37.77
14383;BME280;7275;50.328;8.720;2023-03-16T00:24:19;100292.22;;;6.66;37.52
14383;BME280;7275;50.328;8.720;2023-03-16T00:26:50;100280.00;;;6.63;37.75
14383;BME280;7275;50.328;8.720;2023-03-16T00:29:21;100288.75;;;6.64;37.96
14383;BME280;7275;50.328;8.720;2023-03-16T00:31:48;100289.63;;;6.64;37.79
14383;BME280;7275;50.328;8.720;2023-03-16T00:34:17;100286.13;;;6.65;37.69
14383;BME280;7275;50.328;8.720;2023-03-16T00:36:45;100287.00;;;6.64;37.69
14383;BME280;7275;50.328;8.720;2023-03-16T00:39:12;100280.88;;;6.62;37.67
14383;BME280;7275;50.328;8.720;2023-03-16T00:41:40;100280.03;;;6.60;37.64
14383;BME280;7275;50.328;8.720;2023-03-16T00:44:08;100281.81;;;6.58;37.89
14383;BME280;7275;50.328;8.720;2023-03-16T00:46:37;100283.63;;;6.55;38.01
14383;BME280;7275;50.328;8.720;2023-03-16T00:49:04;100285.38;;;6.51;38.03
14383;BME280;7275;50.328;8.720;2023-03-16T00:51:31;100278.47;;;6.45;37.59
14383;BME280;7275;50.328;8.720;2023-03-16T00:53:59;100273.25;;;6.44;37.72
14383;BME280;7275;50.328;8.720;2023-03-16T00:56:26;100277.63;;;6.42;38.21
14383;BME280;7275;50.328;8.720;2023-03-16T00:58:54;100274.19;;;6.37;37.85
14383;BME280;7275;50.328;8.720;2023-03-16T01:01:23;100271.59;;;6.35;38.23
14383;BME280;7275;50.328;8.720;2023-03-16T01:03:52;100263.72;;;6.34;37.76
14383;BME280;7275;50.328;8.720;2023-03-16T01:06:20;100263.72;;;6.34;38.27
14383;BME280;7275;50.328;8.720;2023-03-16T01:08:48;100263.72;;;6.32;38.01
14383;BME280;7275;50.328;8.720;2023-03-16T01:11:17;100257.66;;;6.29;38.30
14383;BME280;7275;50.328;8.720;2023-03-16T01:13:46;100268.16;;;6.26;38.33
14383;BME280;7275;50.328;8.720;2023-03-16T01:16:14;100272.53;;;6.27;38.27
14383;BME280;7275;50.328;8.720;2023-03-16T01:18:43;100271.66;;;6.26;38.45
14383;BME280;7275;50.328;8.720;2023-03-16T01:21:13;100268.16;;;6.26;38.25
14383;BME280;7275;50.328;8.720;2023-03-16T01:23:40;100257.66;;;6.26;38.64
14383;BME280;7275;50.328;8.720;2023-03-16T01:26:10;100258.53;;;6.26;38.23
14383;BME280;7275;50.328;8.720;2023-03-16T01:28:38;100256.78;;;6.27;38.42
14383;BME280;7275;50.328;8.720;2023-03-16T01:31:07;100254.19;;;6.25;38.43
14383;BME280;7275;50.328;8.720;2023-03-16T01:33:35;100255.09;;;6.23;38.70
14383;BME280;7275;50.328;8.720;2023-03-16T01:36:04;100250.72;;;6.23;38.61
14383;BME280;7275;50.328;8.720;2023-03-16T01:38:34;100250.72;;;6.23;38.76
14383;BME280;7275;50.328;8.720;2023-03-16T01:41:02;100248.06;;;6.25;39.01
14383;BME280;7275;50.328;8.720;2023-03-16T01:43:31;100250.66;;;6.26;38.62
14383;BME280;7275;50.328;8.720;2023-03-16T01:46:13;100241.03;;;6.27;39.02
14383;BME280;7275;50.328;8.720;2023-03-16T01:48:48;100237.53;;;6.26;38.86
14383;BME280;7275;50.328;8.720;2023-03-16T01:51:20;100236.66;;;6.26;38.73
14383;BME280;7275;50.328;8.720;2023-03-16T01:53:52;100234.09;;;6.23;38.61
14383;BME280;7275;50.328;8.720;2023-03-16T01:56:25;100231.47;;;6.23;38.60
14383;BME280;7275;50.328;8.720;2023-03-16T01:58:54;100229.72;;;6.22;38.31
14383;BME280;7275;50.328;8.720;2023-03-16T02:01:25;100228.00;;;6.21;38.52
14383;BME280;7275;50.328;8.720;2023-03-16T02:03:57;100217.50;;;6.18;38.27
14383;BME280;7275;50.328;8.720;2023-03-16T02:06:27;100214.03;;;6.16;38.05
14383;BME280;7275;50.328;8.720;2023-03-16T02:08:57;100214.94;;;6.13;38.20
14383;BME280;7275;50.328;8.720;2023-03-16T02:11:25;100226.34;;;6.12;38.67
14383;BME280;7275;50.328;8.720;2023-03-16T02:13:54;100238.59;;;6.10;38.45
14383;BME280;7275;50.328;8.720;2023-03-16T02:16:24;100246.53;;;6.06;38.29
14383;BME280;7275;50.328;8.720;2023-03-16T02:18:51;100247.47;;;6.00;38.76
14383;BME280;7275;50.328;8.720;2023-03-16T02:21:24;100241.41;;;5.94;39.10
14383;BME280;7275;50.328;8.720;2023-03-16T02:24:00;100234.44;;;5.90;38.50
14383;BME280;7275;50.328;8.720;2023-03-16T02:26:32;100229.22;;;5.88;38.83
14383;BME280;7275;50.328;8.720;2023-03-16T02:29:16;100224.84;;;5.87;39.13
14383;BME280;7275;50.328;8.720;2023-03-16T02:31:48;100221.34;;;5.87;38.87
14383;BME280;7275;50.328;8.720;2023-03-16T02:34:15;100210.88;;;5.85;38.71
14383;BME280;7275;50.328;8.720;2023-03-16T02:36:44;100206.50;;;5.86;38.74
14383;BME280;7275;50.328;8.720;2023-03-16T02:39:13;100210.84;;;5.87;38.37
14383;BME280;7275;50.328;8.720;2023-03-16T02:41:41;100205.63;;;5.87;38.57
14383;BME280;7275;50.328;8.720;2023-03-16T02:44:11;100212.63;;;5.88;38.94
14383;BME280;7275;50.328;8.720;2023-03-16T02:46:42;100200.38;;;5.87;39.04
14383;BME280;7275;50.328;8.720;2023-03-16T02:49:14;100205.63;;;5.85;38.62
14383;BME280;7275;50.328;8.720;2023-03-16T02:51:44;100210.88;;;5.85;38.54
14383;BME280;7275;50.328;8.720;2023-03-16T02:54:12;100200.41;;;5.84;38.88
14383;BME280;7275;50.328;8.720;2023-03-16T02:56:40;100196.88;;;5.83;39.14
14383;BME280;7275;50.328;8.720;2023-03-16T02:59:08;100196.91;;;5.82;38.48
14383;BME280;7275;50.328;8.720;2023-03-16T03:01:35;100191.66;;;5.80;38.77
14383;BME280;7275;50.328;8.720;2023-03-16T03:04:04;100179.44;;;5.79;38.91
14383;BME280;7275;50.328;8.720;2023-03-16T03:06:33;100176.78;;;5.81;38.96
14383;BME280;7275;50.328;8.720;2023-03-16T03:09:02;100181.16;;;5.82;38.56
14383;BME280;7275;50.328;8.720;2023-03-16T03:11:30;100183.75;;;5.83;38.84
14383;BME280;7275;50.328;8.720;2023-03-16T03:13:57;100197.78;;;5.85;39.02
14383;BME280;7275;50.328;8.720;2023-03-16T03:16:25;100186.38;;;5.86;38.67
14383;BME280;7275;50.328;8.720;2023-03-16T03:18:52;100182.00;;;5.88;39.37
14383;BME280;7275;50.328;8.720;2023-03-16T03:21:20;100182.84;;;5.89;39.11
14383;BME280;7275;50.328;8.720;2023-03-16T03:23:50;100185.47;;;5.89;39.31
14383;BME280;7275;50.328;8.720;2023-03-16T03:26:19;100185.47;;;5.89;39.00
14383;BME280;7275;50.328;8.720;2023-03-16T03:28:47;100176.75;;;5.87;38.77
14383;BME280;7275;50.328;8.720;2023-03-16T03:31:15;100176.75;;;5.87;38.80
14383;BME280;7275;50.328;8.720;2023-03-16T03:33:43;100174.19;;;5.84;39.29
14383;BME280;7275;50.328;8.720;2023-03-16T03:36:11;100179.38;;;5.82;39.05
14383;BME280;7275;50.328;8.720;2023-03-16T03:38:39;100177.66;;;5.81;39.19
14383;BME280;7275;50.328;8.720;2023-03-16T03:41:08;100180.31;;;5.80;38.87
14383;BME280;7275;50.328;8.720;2023-03-16T03:43:35;100181.16;;;5.80;38.93
14383;BME280;7275;50.328;8.720;2023-03-16T03:46:03;100177.69;;;5.78;39.13
14383;BME280;7275;50.328;8.720;2023-03-16T03:48:31;100182.09;;;5.78;39.41
14383;BME280;7275;50.328;8.720;2023-03-16T03:50:59;100179.47;;;5.75;39.18
14383;BME280;7275;50.328;8.720;2023-03-16T03:53:27;100183.00;;;5.72;39.45
14383;BME280;7275;50.328;8.720;2023-03-16T03:55:55;100188.28;;;5.71;38.77
14383;BME280;7275;50.328;8.720;2023-03-16T03:58:24;100186.53;;;5.68;39.18
14383;BME280;7275;50.328;8.720;2023-03-16T04:00:51;100179.56;;;5.67;39.03
14383;BME280;7275;50.328;8.720;2023-03-16T04:03:19;100169.06;;;5.65;38.96
14383;BME280;7275;50.328;8.720;2023-03-16T04:05:47;100172.59;;;5.64;39.39
14383;BME280;7275;50.328;8.720;2023-03-16T04:08:14;100182.22;;;5.62;39.39
14383;BME280;7275;50.328;8.720;2023-03-16T04:10:42;100173.50;;;5.60;39.14
14383;BME280;7275;50.328;8.720;2023-03-16T04:13:09;100170.91;;;5.59;39.14
14383;BME280;7275;50.328;8.720;2023-03-16T04:15:38;100170.94;;;5.56;39.14
14383;BME280;7275;50.328;8.720;2023-03-16T04:18:06;100178.81;;;5.54;38.91
14383;BME280;7275;50.328;8.720;2023-03-16T04:20:33;100174.44;;;5.53;39.30
14383;BME280;7275;50.328;8.720;2023-03-16T04:23:01;100171.84;;;5.52;39.59
14383;BME280;7275;50.328;8.720;2023-03-16T04:25:30;100170.13;;;5.49;39.24
14383;BME280;7275;50.328;8.720;2023-03-16T04:27:58;100169.28;;;5.46;39.61
14383;BME280;7275;50.328;8.720;2023-03-16T04:30:25;100167.53;;;5.45;38.97
14383;BME280;7275;50.328;8.720;2023-03-16T04:32:54;100167.56;;;5.43;39.06
14383;BME280;7275;50.328;8.720;2023-03-16T04:35:22;100171.06;;;5.44;39.52
14383;BME280;7275;50.328;8.720;2023-03-16T04:37:49;100163.19;;;5.44;39.52
14383;BME280;7275;50.328;8.720;2023-03-16T04:40:17;100162.31;;;5.43;39.54
14383;BME280;7275;50.328;8.720;2023-03-16T04:42:46;100157.94;;;5.42;39.65
14383;BME280;7275;50.328;8.720;2023-03-16T04:45:15;100158.84;;;5.40;39.40
14383;BME280;7275;50.328;8.720;2023-03-16T04:47:43;100148.44;;;5.34;39.58
14383;BME280;7275;50.328;8.720;2023-03-16T04:50:12;100158.06;;;5.30;39.57
14383;BME280;7275;50.328;8.720;2023-03-16T04:52:40;100157.22;;;5.24;39.19
14383;BME280;7275;50.328;8.720;2023-03-16T04:55:08;100159.00;;;5.22;39.91
14383;BME280;7275;50.328;8.720;2023-03-16T04:57:35;100158.16;;;5.21;39.70
14383;BME280;7275;50.328;8.720;2023-03-16T05:00:04;100160.75;;;5.23;39.52
14383;BME280;7275;50.328;8.720;2023-03-16T05:02:36;100153.78;;;5.23;39.58
14383;BME280;7275;50.328;8.720;2023-03-16T05:05:04;100161.59;;;5.25;39.79
14383;BME280;7275;50.328;8.720;2023-03-16T05:07:33;100161.59;;;5.26;39.56
14383;BME280;7275;50.328;8.720;2023-03-16T05:10:01;100165.06;;;5.28;39.59
14383;BME280;7275;50.328;8.720;2023-03-16T05:12:29;100158.94;;;5.29;39.62
14383;BME280;7275;50.328;8.720;2023-03-16T05:14:56;100170.28;;;5.31;39.55
14383;BME280;7275;50.328;8.720;2023-03-16T05:17:24;100158.06;;;5.32;39.25
14383;BME280;7275;50.328;8.720;2023-03-16T05:19:51;100155.44;;;5.32;40.07
14383;BME280;7275;50.328;8.720;2023-03-16T05:22:19;100158.91;;;5.32;39.65
14383;BME280;7275;50.328;8.720;2023-03-16T05:24:48;100154.56;;;5.31;40.07
14383;BME280;7275;50.328;8.720;2023-03-16T05:27:15;100163.31;;;5.32;39.59
14383;BME280;7275;50.328;8.720;2023-03-16T05:29:43;100159.81;;;5.31;39.76
14383;BME280;7275;50.328;8.720;2023-03-16T05:32:12;100160.69;;;5.32;39.80
14383;BME280;7275;50.328;8.720;2023-03-16T05:34:39;100166.78;;;5.34;40.05
14383;BME280;7275;50.328;8.720;2023-03-16T05:37:08;100162.41;;;5.33;39.76
14383;BME280;7275;50.328;8.720;2023-03-16T05:39:36;100165.91;;;5.33;39.82
14383;BME280;7275;50.328;8.720;2023-03-16T05:42:05;100158.03;;;5.33;39.69
14383;BME280;7275;50.328;8.720;2023-03-16T05:44:33;100161.53;;;5.35;39.58
14383;BME280;7275;50.328;8.720;2023-03-16T05:47:01;100157.16;;;5.36;40.09
14383;BME280;7275;50.328;8.720;2023-03-16T05:49:29;100151.88;;;5.37;40.09
14383;BME280;7275;50.328;8.720;2023-03-16T05:51:56;100152.75;;;5.39;39.66
14383;BME280;7275;50.328;8.720;2023-03-16T05:54:24;100138.75;;;5.42;39.69
14383;BME280;7275;50.328;8.720;2023-03-16T05:56:51;100140.44;;;5.46;39.99
14383;BME280;7275;50.328;8.720;2023-03-16T05:59:21;100141.25;;;5.52;40.13
14383;BME280;7275;50.328;8.720;2023-03-16T06:01:48;100138.53;;;5.61;40.38
14383;BME280;7275;50.328;8.720;2023-03-16T06:04:16;100136.69;;;5.69;40.64
14383;BME280;7275;50.328;8.720;2023-03-16T06:06:43;100137.53;;;5.75;40.68
14383;BME280;7275;50.328;8.720;2023-03-16T06:09:11;100129.59;;;5.79;40.98
14383;BME280;7275;50.328;8.720;2023-03-16T06:11:38;100135.69;;;5.83;41.23
14383;BME280;7275;50.328;8.720;2023-03-16T06:14:06;100141.78;;;5.88;40.80
14383;BME280;7275;50.328;8.720;2023-03-16T06:16:35;100145.19;;;5.96;40.93
14383;BME280;7275;50.328;8.720;2023-03-16T06:19:02;100148.59;;;6.02;41.03
14383;BME280;7275;50.328;8.720;2023-03-16T06:21:30;100144.97;;;6.12;40.82
14383;BME280;7275;50.328;8.720;2023-03-16T06:23:57;100148.34;;;6.23;40.94
14383;BME280;7275;50.328;8.720;2023-03-16T06:26:25;100149.09;;;6.33;41.00
14383;BME280;7275;50.328;8.720;2023-03-16T06:28:52;100150.69;;;6.43;41.11
14383;BME280;7275;50.328;8.720;2023-03-16T06:31:20;100154.13;;;6.50;41.23
14383;BME280;7275;50.328;8.720;2023-03-16T06:33:49;100145.22;;;6.60;41.13
14383;BME280;7275;50.328;8.720;2023-03-16T06:36:17;100138.97;;;6.68;41.56
14383;BME280;7275;50.328;8.720;2023-03-16T06:38:44;100148.47;;;6.77;41.29
14383;BME280;7275;50.328;8.720;2023-03-16T06:41:12;100139.59;;;6.85;41.57
14383;BME280;7275;50.328;8.720;2023-03-16T06:43:39;100142.03;;;6.96;41.48
14383;BME280;7275;50.328;8.720;2023-03-16T06:46:08;100148.03;;;7.04;41.42
14383;BME280;7275;50.328;8.720;2023-03-16T06:48:35;100147.03;;;7.12;41.45
14383;BME280;7275;50.328;8.720;2023-03-16T06:51:05;100145.09;;;7.23;41.62
14383;BME280;7275;50.328;8.720;2023-03-16T06:53:32;100141.47;;;7.31;41.55
14383;BME280;7275;50.328;8.720;2023-03-16T06:56:00;100145.66;;;7.42;41.65
14383;BME280;7275;50.328;8.720;2023-03-16T06:58:28;100141.06;;;7.53;41.76
14383;BME280;7275;50.328;8.720;2023-03-16T07:01:00;100136.47;;;7.64;41.98
14383;BME280;7275;50.328;8.720;2023-03-16T07:03:27;100138.88;;;7.76;41.96
14383;BME280;7275;50.328;8.720;2023-03-16T07:05:55;100136.91;;;7.87;41.89
14383;BME280;7275;50.328;8.720;2023-03-16T07:08:24;100134.94;;;7.98;42.03
14383;BME280;7275;50.328;8.720;2023-03-16T07:10:52;100133.78;;;8.12;41.96
14383;BME280;7275;50.328;8.720;2023-03-16T07:13:19;100141.44;;;8.22;41.93
14383;BME280;7275;50.328;8.720;2023-03-16T07:15:49;100143.00;;;8.34;41.91
14383;BME280;7275;50.328;8.720;2023-03-16T07:18:17;100154.13;;;8.48;42.03
14383;BME280;7275;50.328;8.720;2023-03-16T07:20:45;100148.56;;;8.61;42.05
14383;BME280;7275;50.328;8.720;2023-03-16T07:23:12;100151.78;;;8.74;41.72
14383;BME280;7275;50.328;8.720;2023-03-16T07:25:42;100147.94;;;8.89;41.93
14383;BME280;7275;50.328;8.720;2023-03-16T07:28:11;100155.56;;;9.01;41.73
14383;BME280;7275;50.328;8.720;2023-03-16T07:30:38;100160.56;;;9.11;41.68
14383;BME280;7275;50.328;8.720;2023-03-16T07:33:18;100156.88;;;9.18;41.60
14383;BME280;7275;50.328;8.720;2023-03-16T07:35:46;100156.69;;;9.26;41.55
14383;BME280;7275;50.328;8.720;2023-03-16T07:38:13;100155.59;;;9.34;41.76
14383;BME280;7275;50.328;8.720;2023-03-16T07:40:42;100151.88;;;9.41;41.55
14383;BME280;7275;50.328;8.720;2023-03-16T07:43:10;100144.69;;;9.48;41.65
14383;BME280;7275;50.328;8.720;2023-03-16T07:45:37;100142.75;;;9.54;41.57
14383;BME280;7275;50.328;8.720;2023-03-16T07:48:05;100147.81;;;9.63;41.76
14383;BME280;7275;50.328;8.720;2023-03-16T07:50:33;100150.19;;;9.73;41.45
14383;BME280;7275;50.328;8.720;2023-03-16T07:53:00;100152.63;;;9.80;41.40
14383;BME280;7275;50.328;8.720;2023-03-16T07:55:28;100148.03;;;9.87;41.30
14383;BME280;7275;50.328;8.720;2023-03-16T07:57:58;100151.19;;;9.99;41.27
14383;BME280;7275;50.328;8.720;2023-03-16T08:00:25;100156.28;;;10.07;41.50
14383;BME280;7275;50.328;8.720;2023-03-16T08:02:53;100145.59;;;10.13;41.10
14383;BME280;7275;50.328;8.720;2023-03-16T08:05:22;100140.19;;;10.16;41.26
14383;BME280;7275;50.328;8.720;2023-03-16T08:07:53;100136.66;;;10.17;41.02
14383;BME280;7275;50.328;8.720;2023-03-16T08:10:21;100137.47;;;10.19;41.07
14383;BME280;7275;50.328;8.720;2023-03-16T08:12:50;100140.06;;;10.20;41.17
14383;BME280;7275;50.328;8.720;2023-03-16T08:15:19;100140.88;;;10.22;41.05
14383;BME280;7275;50.328;8.720;2023-03-16T08:17:46;100135.59;;;10.24;41.03
14383;BME280;7275;50.328;8.720;2023-03-16T08:20:14;100133.69;;;10.27;41.14
14383;BME280;7275;50.328;8.720;2023-03-16T08:22:42;100134.47;;;10.31;40.85
14383;BME280;7275;50.328;8.720;2023-03-16T08:25:13;100131.84;;;10.31;40.67
14383;BME280;7275;50.328;8.720;2023-03-16T08:27:41;100141.44;;;10.33;41.21
14383;BME280;7275;50.328;8.720;2023-03-16T08:30:11;100128.97;;;10.38;41.05
14383;BME280;7275;50.328;8.720;2023-03-16T08:32:40;100126.28;;;10.40;40.86
14383;BME280;7275;50.328;8.720;2023-03-16T08:35:10;100127.03;;;10.43;41.23
14383;BME280;7275;50.328;8.720;2023-03-16T08:37:38;100121.56;;;10.50;40.77
14383;BME280;7275;50.328;8.720;2023-03-16T08:40:07;100117.94;;;10.54;41.15
14383;BME280;7275;50.328;8.720;2023-03-16T08:42:41;100118.72;;;10.57;40.93
14383;BME280;7275;50.328;8.720;2023-03-16T08:45:11;100108.00;;;10.62;41.34
14383;BME280;7275;50.328;8.720;2023-03-16T08:47:41;100108.63;;;10.70;41.20
14383;BME280;7275;50.328;8.720;2023-03-16T08:50:09;100110.81;;;10.83;41.26
14383;BME280;7275;50.328;8.720;2023-03-16T08:52:38;100110.34;;;10.98;41.21
14383;BME280;7275;50.328;8.720;2023-03-16T08:55:07;100113.31;;;11.15;41.19
14383;BME280;7275;50.328;8.720;2023-03-16T08:57:36;100104.91;;;11.29;41.25
14383;BME280;7275;50.328;8.720;2023-03-16T09:00:05;100107.78;;;11.48;41.45
14383;BME280;7275;50.328;8.720;2023-03-16T09:02:41;100095.38;;;11.99;40.55
14383;BME280;7275;50.328;8.720;2023-03-16T09:05:10;100101.97;;;12.80;39.87
14383;BME280;7275;50.328;8.720;2023-03-16T09:07:38;100084.13;;;13.67;39.03
14383;BME280;7275;50.328;8.720;2023-03-16T09:10:06;100074.88;;;14.53;38.68
14383;BME280;7275;50.328;8.720;2023-03-16T09:12:35;100073.25;;;15.39;38.25
14383;BME280;7275;50.328;8.720;2023-03-16T09:15:04;100071.63;;;16.21;38.02
14383;BME280;7275;50.328;8.720;2023-03-16T09:17:31;100082.78;;;16.91;37.42
14383;BME280;7275;50.328;8.720;2023-03-16T09:20:01;100085.75;;;17.62;37.25
14383;BME280;7275;50.328;8.720;2023-03-16T09:22:46;100078.00;;;18.29;36.76
14383;BME280;7275;50.328;8.720;2023-03-16T09:25:14;100066.59;;;18.68;36.11
14383;BME280;7275;50.328;8.720;2023-03-16T09:27:41;100074.34;;;18.99;35.65
14383;BME280;7275;50.328;8.720;2023-03-16T09:30:10;100069.91;;;19.39;35.34
14383;BME280;7275;50.328;8.720;2023-03-16T09:32:38;100062.69;;;19.78;34.85
14383;BME280;7275;50.328;8.720;2023-03-16T09:35:07;100049.16;;;20.18;34.56
14383;BME280;7275;50.328;8.720;2023-03-16T09:37:35;100044.91;;;20.64;34.10
14383;BME280;7275;50.328;8.720;2023-03-16T09:40:20;100034.59;;;20.94;33.68
14383;BME280;7275;50.328;8.720;2023-03-16T09:42:57;100035.69;;;21.15;33.24
14383;BME280;7275;50.328;8.720;2023-03-16T09:45:34;100031.16;;;21.39;33.19
14383;BME280;7275;50.328;8.720;2023-03-16T09:48:04;100034.16;;;21.70;32.21
14383;BME280;7275;50.328;8.720;2023-03-16T09:50:36;100037.22;;;21.76;31.76
14383;BME280;7275;50.328;8.720;2023-03-16T09:53:21;100027.69;;;21.72;31.69
14383;BME280;7275;50.328;8.720;2023-03-16T09:55:52;100032.03;;;21.86;31.92
14383;BME280;7275;50.328;8.720;2023-03-16T10:00:56;100024.59;;;22.34;31.73
14383;BME280;7275;50.328;8.720;2023-03-16T10:03:32;100026.91;;;22.71;31.45
14383;BME280;7275;50.328;8.720;2023-03-16T10:06:06;100024.66;;;22.87;31.08
14383;BME280;7275;50.328;8.720;2023-03-16T10:08:38;100021.81;;;22.89;30.40
14383;BME280;7275;50.328;8.720;2023-03-16T10:11:19;100027.78;;;23.03;30.70
14383;BME280;7275;50.328;8.720;2023-03-16T10:13:52;100019.72;;;23.35;30.35
14383;BME280;7275;50.328;8.720;2023-03-16T10:16:24;100024.06;;;23.68;29.75
14383;BME280;7275;50.328;8.720;2023-03-16T10:18:59;100019.47;;;23.79;29.49
14383;BME280;7275;50.328;8.720;2023-03-16T10:21:30;100019.41;;;23.70;29.11
14383;BME280;7275;50.328;8.720;2023-03-16T10:23:59;100025.31;;;23.43;28.74
14383;BME280;7275;50.328;8.720;2023-03-16T10:26:34;100039.06;;;23.09;29.28
14383;BME280;7275;50.328;8.720;2023-03-16T10:29:09;100026.53;;;22.76;28.99
14383;BME280;7275;50.328;8.720;2023-03-16T10:31:39;100019.06;;;22.35;29.19
14383;BME280;7275;50.328;8.720;2023-03-16T10:34:07;100027.63;;;21.85;29.39
14383;BME280;7275;50.328;8.720;2023-03-16T10:36:38;100024.31;;;21.35;29.28
14383;BME280;7275;50.328;8.720;2023-03-16T10:39:10;100024.72;;;20.82;29.73
14383;BME280;7275;50.328;8.720;2023-03-16T10:41:38;100028.56;;;20.31;30.01
14383;BME280;7275;50.328;8.720;2023-03-16T10:44:10;100033.38;;;20.01;30.37
14383;BME280;7275;50.328;8.720;2023-03-16T10:46:39;100026.19;;;19.88;30.66
14383;BME280;7275;50.328;8.720;2023-03-16T10:49:19;100028.88;;;20.01;31.10
14383;BME280;7275;50.328;8.720;2023-03-16T10:51:49;100016.94;;;20.05;30.96
14383;BME280;7275;50.328;8.720;2023-03-16T10:54:23;100020.38;;;20.07;30.93
14383;BME280;7275;50.328;8.720;2023-03-16T10:56:54;100006.22;;;20.30;30.84
14383;BME280;7275;50.328;8.720;2023-03-16T10:59:28;100000.91;;;20.78;30.29
14383;BME280;7275;50.328;8.720;2023-03-16T11:01:57;100005.59;;;21.45;30.13
14383;BME280;7275;50.328;8.720;2023-03-16T11:04:30;99995.69;;;22.36;30.05
14383;BME280;7275;50.328;8.720;2023-03-16T11:06:58;99990.53;;;22.97;28.71
14383;BME280;7275;50.328;8.720;2023-03-16T11:09:31;99975.88;;;23.43;28.85
14383;BME280;7275;50.328;8.720;2023-03-16T11:11:59;99981.69;;;23.59;28.12
14383;BME280;7275;50.328;8.720;2023-03-16T11:14:42;99969.97;;;23.69;28.40
14383;BME280;7275;50.328;8.720;2023-03-16T11:17:12;99993.69;;;23.96;28.00
14383;BME280;7275;50.328;8.720;2023-03-16T11:19:49;99986.03;;;24.01;27.86
14383;BME280;7275;50.328;8.720;2023-03-16T11:22:21;99971.19;;;24.16;27.62
14383;BME280;7275;50.328;8.720;2023-03-16T11:24:53;99982.38;;;24.42;27.33
14383;BME280;7275;50.328;8.720;2023-03-16T11:27:24;99976.34;;;24.69;27.42
14383;BME280;7275;50.328;8.720;2023-03-16T11:30:03;99963.31;;;24.93;27.18
14383;BME280;7275;50.328;8.720;2023-03-16T11:32:34;99958.47;;;25.15;26.88
14383;BME280;7275;50.328;8.720;2023-03-16T11:35:11;99954.16;;;25.22;26.66
14383;BME280;7275;50.328;8.720;2023-03-16T11:37:47;99946.06;;;25.51;26.51
14383;BME280;7275;50.328;8.720;2023-03-16T11:40:28;99958.50;;;25.81;26.34
14383;BME280;7275;50.328;8.720;2023-03-16T11:43:07;99951.34;;;25.89;25.92
14383;BME280;7275;50.328;8.720;2023-03-16T11:45:45;99929.28;;;25.84;26.10
14383;BME280;7275;50.328;8.720;2023-03-16T11:48:23;99950.38;;;25.81;26.18
14383;BME280;7275;50.328;8.720;2023-03-16T11:51:03;99948.91;;;25.50;26.34
14383;BME280;7275;50.328;8.720;2023-03-16T11:53:46;99950.75;;;25.20;26.11
14383;BME280;7275;50.328;8.720;2023-03-16T11:56:23;99937.50;;;25.36;26.30
14383;BME280;7275;50.328;8.720;2023-03-16T11:59:00;99927.78;;;25.99;26.08
14383;BME280;7275;50.328;8.720;2023-03-16T12:01:41;99923.00;;;26.21;25.70
14383;BME280;7275;50.328;8.720;2023-03-16T12:04:36;99910.78;;;26.79;25.62
14383;BME280;7275;50.328;8.720;2023-03-16T12:07:26;99914.25;;;27.42;24.98
14383;BME280;7275;50.328;8.720;2023-03-16T12:10:23;99924.75;;;27.88;24.97
14383;BME280;7275;50.328;8.720;2023-03-16T12:13:03;99921.25;;;28.37;24.54
14383;BME280;7275;50.328;8.720;2023-03-16T12:15:38;99920.06;;;28.40;23.98
14383;BME280;7275;50.328;8.720;2023-03-16T12:18:13;99927.44;;;28.06;24.11
14383;BME280;7275;50.328;8.720;2023-03-16T12:20:49;99910.69;;;27.41;23.84
14383;BME280;7275;50.328;8.720;2023-03-16T12:23:20;99909.75;;;26.62;24.16
14383;BME280;7275;50.328;8.720;2023-03-16T12:25:51;99908.66;;;25.74;24.66
14383;BME280;7275;50.328;8.720;2023-03-16T12:28:22;99908.19;;;24.94;24.96
14383;BME280;7275;50.328;8.720;2023-03-16T12:30:57;99901.56;;;24.29;25.39
14383;BME280;7275;50.328;8.720;2023-03-16T12:33:35;99911.16;;;23.73;26.11
14383;BME280;7275;50.328;8.720;2023-03-16T12:36:23;99904.06;;;23.31;26.13
14383;BME280;7275;50.328;8.720;2023-03-16T12:39:01;99896.47;;;23.36;26.35
14383;BME280;7275;50.328;8.720;2023-03-16T12:41:39;99896.78;;;23.42;26.72
14383;BME280;7275;50.328;8.720;2023-03-16T12:44:13;99891.56;;;23.30;26.81
14383;BME280;7275;50.328;8.720;2023-03-16T12:46:50;99900.38;;;23.11;26.60
14383;BME280;7275;50.328;8.720;2023-03-16T12:49:22;99885.84;;;22.82;26.62
14383;BME280;7275;50.328;8.720;2023-03-16T12:51:58;99871.97;;;22.44;26.98
14383;BME280;7275;50.328;8.720;2023-03-16T12:54:26;99889.19;;;22.09;27.36
14383;BME280;7275;50.328;8.720;2023-03-16T12:57:01;99881.84;;;21.78;27.12
14383;BME280;7275;50.328;8.720;2023-03-16T12:59:38;99880.75;;;21.47;27.55
14383;BME280;7275;50.328;8.720;2023-03-16T13:02:13;99880.97;;;21.22;27.89
14383;BME280;7275;50.328;8.720;2023-03-16T13:04:44;99871.84;;;20.90;28.20
14383;BME280;7275;50.328;8.720;2023-03-16T13:07:19;99870.53;;;20.61;28.36
14383;BME280;7275;50.328;8.720;2023-03-16T13:09:51;99864.53;;;20.34;28.54
14383;BME280;7275;50.328;8.720;2023-03-16T13:12:26;99863.00;;;20.06;28.93
14383;BME280;7275;50.328;8.720;2023-03-16T13:14:56;99881.97;;;19.79;29.03
14383;BME280;7275;50.328;8.720;2023-03-16T13:17:26;99869.66;;;19.64;29.23
14383;BME280;7275;50.328;8.720;2023-03-16T13:23:08;99858.53;;;19.45;29.73
14383;BME280;7275;50.328;8.720;2023-03-16T13:25:58;99848.63;;;19.33;30.03
14383;BME280;7275;50.328;8.720;2023-03-16T13:28:29;99839.84;;;19.31;30.13
14383;BME280;7275;50.328;8.720;2023-03-16T13:30:59;99842.97;;;19.50;30.05